Terminal Aerodrome Forecast
Issued by NWS

Home | Current Version | Previous Version | Text Only | Print | Product List | Glossary On
Versions: 1 2 3 4 5 6 7 8 9 10 11 12
000
FTUS43 KICT 062321
TAFSLN
TAF
KSLN 062321Z 0700/0724 22011KT P6SM FEW250
     FM070700 28008KT P6SM FEW250
     FM071600 31016KT P6SM BKN200
     FM071800 31023G30KT P6SM SCT200=

USA.gov is the U.S. government's official web portal to all federal, state and local government web resources and services.